createdAt,value
2019-02-12T00:00:57.691Z,4.70
2019-02-12T00:06:06.518Z,5.50
2019-02-12T00:11:15.060Z,4.93
2019-02-12T00:16:23.851Z,4.94
2019-02-12T00:21:32.478Z,4.21
2019-02-12T00:26:42.403Z,4.27
2019-02-12T00:31:50.881Z,5.22
2019-02-12T00:36:59.617Z,5.47
2019-02-12T00:42:08.264Z,4.84
2019-02-12T00:47:16.922Z,5.02
2019-02-12T00:52:25.367Z,4.14
2019-02-12T00:57:34.189Z,4.35
2019-02-12T01:02:42.587Z,5.26
2019-02-12T01:07:51.275Z,5.46
2019-02-12T01:12:59.691Z,4.75
2019-02-12T01:18:08.531Z,5.15
2019-02-12T01:23:17.028Z,6.06
2019-02-12T01:28:25.700Z,6.10
2019-02-12T01:33:34.187Z,4.99
2019-02-12T01:38:43.229Z,4.92
2019-02-12T01:43:51.742Z,6.60
2019-02-12T01:49:00.394Z,5.67
2019-02-12T01:54:09.170Z,4.88
2019-02-12T01:59:18.023Z,4.57
2019-02-12T02:04:26.494Z,4.60
2019-02-12T02:09:35.333Z,5.00
2019-02-12T02:14:43.884Z,5.24
2019-02-12T02:19:52.603Z,4.60
2019-02-12T02:25:01.588Z,4.73
2019-02-12T02:30:10.294Z,4.73
2019-02-12T02:35:18.674Z,4.10
2019-02-12T02:40:27.898Z,4.82
2019-02-12T02:45:36.252Z,4.54
2019-02-12T02:50:46.277Z,4.11
2019-02-12T02:55:44.664Z,4.09
2019-02-12T03:00:53.194Z,4.15
2019-02-12T03:06:00.620Z,4.27
2019-02-12T03:11:09.261Z,3.71
2019-02-12T03:16:18.202Z,4.19
2019-02-12T03:21:26.674Z,3.57
2019-02-12T03:26:35.717Z,3.73
2019-02-12T03:31:44.144Z,4.11
2019-02-12T03:36:53.269Z,4.08
2019-02-12T03:42:01.620Z,3.97
2019-02-12T03:47:11.466Z,4.46
2019-02-12T03:52:20.069Z,4.79
2019-02-12T03:57:29.022Z,4.33
2019-02-12T04:02:37.593Z,4.35
2019-02-12T04:07:46.481Z,3.89
2019-02-12T04:12:54.849Z,4.22
2019-02-12T04:18:03.581Z,4.14
2019-02-12T04:23:11.966Z,3.99
2019-02-12T04:28:20.758Z,4.20
2019-02-12T04:33:29.091Z,4.08
2019-02-12T04:38:38.158Z,4.03
2019-02-12T04:43:46.610Z,3.73
2019-02-12T04:48:55.742Z,4.06
2019-02-12T04:54:04.097Z,4.62
2019-02-12T04:59:12.981Z,4.29
2019-02-12T05:04:21.553Z,3.83
2019-02-12T05:09:28.932Z,4.14
2019-02-12T05:14:37.459Z,4.36
2019-02-12T05:19:46.337Z,4.50
2019-02-12T05:24:54.840Z,4.23
2019-02-12T05:30:04.517Z,4.24
2019-02-12T05:35:12.981Z,4.13
2019-02-12T05:40:21.458Z,4.40
2019-02-12T05:45:30.387Z,4.42
2019-02-12T05:50:38.801Z,4.48
2019-02-12T05:55:47.525Z,3.68
2019-02-12T06:00:56.293Z,4.25
2019-02-12T06:06:05.187Z,4.63
2019-02-12T06:11:13.531Z,5.85
2019-02-12T06:16:22.395Z,4.61
2019-02-12T06:21:30.807Z,4.94
2019-02-12T06:26:39.683Z,5.09
2019-02-12T06:31:46.605Z,4.04
2019-02-12T06:36:55.288Z,3.87
2019-02-12T06:42:03.763Z,4.06
2019-02-12T06:47:12.593Z,4.53
2019-02-12T06:52:21.209Z,3.68
2019-02-12T06:57:29.873Z,3.57
2019-02-12T07:02:38.366Z,4.15
2019-02-12T07:07:47.206Z,4.04
2019-02-12T07:12:59.412Z,3.87
2019-02-12T07:17:57.318Z,3.72
2019-02-12T07:23:05.781Z,3.24
2019-02-12T07:28:14.448Z,3.85
2019-02-12T07:33:22.917Z,3.39
2019-02-12T07:38:31.687Z,3.19
2019-02-12T07:43:40.169Z,3.66
2019-02-12T07:48:49.165Z,3.36
2019-02-12T07:53:57.935Z,3.35
2019-02-12T07:59:06.666Z,3.32
2019-02-12T08:04:15.073Z,3.84
2019-02-12T08:09:23.928Z,3.20
2019-02-12T08:14:32.585Z,3.26
2019-02-12T08:19:43.340Z,3.54
2019-02-12T08:24:41.682Z,3.80
2019-02-12T08:29:50.170Z,3.82
2019-02-12T08:34:58.849Z,4.23
2019-02-12T08:40:07.351Z,3.36
2019-02-12T08:45:51.865Z,3.72
2019-02-12T08:51:00.180Z,3.99
2019-02-12T08:56:08.927Z,4.16
2019-02-12T09:01:17.265Z,4.00
2019-02-12T09:06:25.946Z,4.09
2019-02-12T09:11:34.267Z,3.82
2019-02-12T09:16:42.991Z,3.84
2019-02-12T09:21:51.410Z,4.11
2019-02-12T09:27:00.380Z,3.51
2019-02-12T09:32:08.781Z,3.67
2019-02-12T09:37:18.525Z,3.53
2019-02-12T09:42:26.883Z,4.33
2019-02-12T09:47:36.392Z,3.90
2019-02-12T09:52:44.758Z,3.46
2019-02-12T09:57:53.686Z,3.75
2019-02-12T10:03:02.235Z,3.40
2019-02-12T10:08:10.972Z,3.59
2019-02-12T10:13:19.383Z,3.35
2019-02-12T10:18:28.348Z,3.42
2019-02-12T10:23:36.812Z,3.41
2019-02-12T10:28:48.785Z,3.53
2019-02-12T10:33:53.093Z,3.42
2019-02-12T10:39:01.865Z,5.40
2019-02-12T10:44:10.303Z,3.26
2019-02-12T10:49:19.138Z,3.88
2019-02-12T10:54:28.185Z,3.08
2019-02-12T10:59:35.932Z,3.30
2019-02-12T11:04:44.486Z,3.09
2019-02-12T11:09:54.226Z,3.84
2019-02-12T11:15:02.594Z,3.17
2019-02-12T11:20:11.412Z,2.83
2019-02-12T11:25:20.368Z,3.15
2019-02-12T11:30:29.057Z,3.15
2019-02-12T11:35:37.530Z,3.44
2019-02-12T11:40:46.184Z,3.16
2019-02-12T11:45:54.639Z,2.78
2019-02-12T11:51:03.546Z,3.17
2019-02-12T11:56:12.009Z,2.83
2019-02-12T12:01:20.649Z,3.42
2019-02-12T12:06:29.192Z,3.36
2019-02-12T12:11:37.935Z,2.80
2019-02-12T12:16:46.387Z,3.93
2019-02-12T12:21:55.056Z,2.62
2019-02-12T12:27:03.520Z,2.54
2019-02-12T12:32:11.945Z,2.46
2019-02-12T12:37:20.346Z,2.78
2019-02-12T12:42:29.213Z,2.69
2019-02-12T12:47:37.645Z,2.46
2019-02-12T12:52:46.457Z,2.57
2019-02-12T12:57:54.875Z,2.54
2019-02-12T13:03:03.596Z,2.01
2019-02-12T13:08:11.971Z,2.77
2019-02-12T13:13:23.592Z,2.12
2019-02-12T13:18:22.126Z,2.39
2019-02-12T13:23:31.111Z,2.39
2019-02-12T13:28:39.841Z,3.50
2019-02-12T13:33:48.705Z,2.47
2019-02-12T13:38:57.109Z,3.39
2019-02-12T13:44:05.495Z,2.39
2019-02-12T13:49:14.389Z,2.25
2019-02-12T13:54:22.951Z,2.76
2019-02-12T13:59:33.530Z,2.42
2019-02-12T14:04:39.805Z,2.46
2019-02-12T14:09:48.829Z,2.81
2019-02-12T14:14:57.205Z,2.42
2019-02-12T14:20:06.176Z,3.17
2019-02-12T14:25:14.644Z,2.48
2019-02-12T14:30:24.421Z,2.43
2019-02-12T14:35:33.252Z,2.60
2019-02-12T14:40:45.875Z,2.42
2019-02-12T14:45:44.964Z,2.45
2019-02-12T14:50:53.736Z,2.45
2019-02-12T14:56:02.134Z,2.44
2019-02-12T15:01:11.028Z,3.14
2019-02-12T15:06:19.539Z,2.57
2019-02-12T15:11:28.617Z,2.33
2019-02-12T15:16:37.091Z,2.17
2019-02-12T15:21:47.542Z,2.04
2019-02-12T15:26:46.432Z,2.28
2019-02-12T15:31:54.941Z,4.61
2019-02-12T15:37:03.833Z,2.45
2019-02-12T15:42:12.345Z,2.47
2019-02-12T15:47:23.868Z,2.33
2019-02-12T15:52:22.181Z,2.28
2019-02-12T15:57:31.192Z,2.31
2019-02-12T16:02:43.821Z,2.28
2019-02-12T16:07:42.624Z,2.26
2019-02-12T16:12:51.537Z,2.51
2019-02-12T16:18:00.200Z,2.29
2019-02-12T16:23:06.452Z,2.44
2019-02-12T16:28:14.868Z,2.50
2019-02-12T16:33:23.283Z,2.74
2019-02-12T16:38:32.217Z,2.90
2019-02-12T16:43:40.831Z,2.93
2019-02-12T16:48:49.548Z,2.71
2019-02-12T16:53:58.419Z,2.44
2019-02-12T16:59:07.042Z,2.30
2019-02-12T17:04:15.509Z,2.41
2019-02-12T17:09:23.983Z,2.27
2019-02-12T17:14:33.187Z,2.65
2019-02-12T17:19:42.110Z,2.33
2019-02-12T17:24:50.617Z,2.48
2019-02-12T17:29:59.460Z,2.57
2019-02-12T17:35:11.496Z,2.64
2019-02-12T17:40:14.304Z,3.08
2019-02-12T17:45:12.743Z,3.29
2019-02-12T17:50:21.388Z,5.43
2019-02-12T17:55:29.827Z,3.48
2019-02-12T18:00:38.716Z,3.97
2019-02-12T18:05:47.161Z,4.33
2019-02-12T18:10:56.030Z,3.70
2019-02-12T18:16:04.511Z,3.39
2019-02-12T18:21:11.903Z,3.65
2019-02-12T18:26:20.319Z,4.24
2019-02-12T18:31:28.791Z,4.34
2019-02-12T18:36:37.241Z,4.25
2019-02-12T18:41:45.944Z,3.68
2019-02-12T18:46:54.438Z,3.64
2019-02-12T18:52:19.018Z,3.47
2019-02-12T18:57:27.981Z,3.27
2019-02-12T19:02:37.730Z,4.01
2019-02-12T19:07:46.367Z,5.24
2019-02-12T19:12:56.105Z,7.39
2019-02-12T19:18:04.551Z,5.33
2019-02-12T19:23:14.343Z,4.63
2019-02-12T19:28:22.917Z,4.31
2019-02-12T19:33:34.588Z,5.19
2019-02-12T19:38:33.164Z,5.32
2019-02-12T19:43:41.726Z,4.51
2019-02-12T19:48:50.604Z,4.25
2019-02-12T19:53:59.097Z,4.18
2019-02-12T19:59:08.028Z,4.95
2019-02-12T20:04:16.369Z,6.39
2019-02-12T20:09:24.152Z,5.15
2019-02-12T20:14:32.954Z,4.75
2019-02-12T20:19:41.736Z,6.05
2019-02-12T20:24:50.443Z,4.66
2019-02-12T20:29:57.777Z,4.84
2019-02-12T20:35:06.365Z,5.10
2019-02-12T20:40:15.243Z,5.54
2019-02-12T20:45:23.751Z,4.99
2019-02-12T20:50:32.585Z,5.48
2019-02-12T20:55:41.020Z,5.48
2019-02-12T21:00:50.251Z,6.72
2019-02-12T21:05:58.689Z,5.81
2019-02-12T21:11:11.039Z,5.13
2019-02-12T21:16:09.626Z,5.44
2019-02-12T21:21:20.509Z,4.20
2019-02-12T21:26:19.171Z,4.28
2019-02-12T21:31:27.558Z,4.11
2019-02-12T21:36:36.433Z,4.31
2019-02-12T21:41:45.104Z,4.32
2019-02-12T21:46:53.935Z,4.12
2019-02-12T21:52:02.411Z,4.16
2019-02-12T21:57:11.220Z,4.22
2019-02-12T22:02:19.656Z,3.94
2019-02-12T22:07:28.474Z,3.56
2019-02-12T22:12:37.585Z,4.58
2019-02-12T22:17:46.246Z,4.18
2019-02-12T22:22:54.953Z,4.48
2019-02-12T22:28:03.643Z,4.86
2019-02-12T22:33:12.103Z,5.61
2019-02-12T22:38:21.000Z,5.35
2019-02-12T22:43:29.573Z,5.61
2019-02-12T22:48:39.260Z,5.50
2019-02-12T22:53:47.662Z,5.31
2019-02-12T22:58:57.550Z,4.94
2019-02-12T23:04:06.206Z,4.55
2019-02-12T23:09:14.890Z,5.09
2019-02-12T23:14:23.742Z,5.16
2019-02-12T23:19:33.687Z,5.82
2019-02-12T23:24:42.180Z,5.77
2019-02-12T23:29:51.170Z,5.68
2019-02-12T23:34:59.645Z,5.80
2019-02-12T23:40:08.410Z,5.29
2019-02-12T23:45:16.989Z,5.40
2019-02-12T23:50:26.835Z,5.08
2019-02-12T23:55:35.256Z,5.58
